Alanreed, TX

2:30 AM CDT on July 26, 2016 (GMT -0500)
WT_Meso | | Change Station

Elev 3215 ft 35.54 °N, 100.93 °W | Updated 35 minutes ago

Scattered Clouds
Scattered Clouds
75 °F
Feels Like 76 °F
N
5
Wind Variable Wind from SE
Gusts 7.0 mph

Today
High -- | Low -- °F
--% Chance of Precip.
Yesterday
High -- | Low -- °F
Precip. -- in
Pressure 30.12 in
Visibility 10.0 miles
Clouds Scattered Clouds 5000 ft
Scattered Clouds 9000 ft
Heat Index 76 °F
Dew Point 66 °F
Humidity 76%
Rainfall in
Snow Depth Not available.
6:47 AM 8:51 PM
Waning Gibbous, 57% visible
METAR KPPA 260715Z AUTO 15006KT 10SM SCT050 SCT090 24/19 A3012 RMK AO2 T02430193 PWINO
Pressure 30.12 in
Visibility 10.0 miles
Clouds Scattered Clouds 5000 ft
Scattered Clouds 9000 ft
Heat Index 76 °F
Dew Point 66 °F
Humidity 76%
Rainfall in
Snow Depth Not available.
6:47 AM 8:51 PM
Waning Gibbous, 57% visible
METAR KPPA 260715Z AUTO 15006KT 10SM SCT050 SCT090 24/19 A3012 RMK AO2 T02430193 PWINO

10-Day Weather Forecast

Almanac

Astronomy

Jul. 26, 2016 Rise Set
Actual Time
Civil Twilight
Nautical Twilight
Astronomical Twilight
Moon
Length of Visible Light
Length of Day
Tomorrow will be .
, % of the Moon is Illuminated

Today's Extremes

State Highs State Lows

Community

WunderPhotos

Upload Photos

1,927,552 photos uploaded!

WunderBlog® & News

Nearby

Air Quality

  Air Quality AQ Index Pollutant
Not available.

Snow Depth

Station Depth Elevation

Earthquake Activity

City Distance Mag. Time & Date
Minimum magnitude displayed is 2.5.

Coastal Water Temperatures

Place Temperature

Stations

Nearby Weather Stations

Station Location Temp. Windchill Dew Point Humidity Wind Precip. Elev Updated Type
                   

Watches & Warnings

There are currently no watches in effect.